createdAt,value
2022-09-24T00:02:22.286Z,93.68
2022-09-24T00:04:50.701Z,93.47
2022-09-24T00:07:23.601Z,93.33
2022-09-24T00:09:51.776Z,94.08
2022-09-24T00:12:19.958Z,94.50
2022-09-24T00:14:49.900Z,95.48
2022-09-24T00:17:18.058Z,96.29
2022-09-24T00:19:46.230Z,95.55
2022-09-24T00:22:14.392Z,96.28
2022-09-24T00:25:00.022Z,96.13
2022-09-24T00:27:29.146Z,96.45
2022-09-24T00:29:58.677Z,96.03
2022-09-24T00:32:27.070Z,94.94
2022-09-24T00:34:55.291Z,94.98
2022-09-24T00:37:23.458Z,95.62
2022-09-24T00:39:51.633Z,96.09
2022-09-24T00:42:20.709Z,95.82
2022-09-24T00:44:53.673Z,95.17
2022-09-24T00:47:44.876Z,96.08
2022-09-24T00:50:20.969Z,95.48
2022-09-24T00:52:54.540Z,95.06
2022-09-24T00:55:24.803Z,94.55
2022-09-24T00:57:57.574Z,95.19
2022-09-24T01:00:26.818Z,94.22
2022-09-24T01:03:02.888Z,95.42
2022-09-24T01:05:31.345Z,95.82
2022-09-24T01:08:00.799Z,96.14
2022-09-24T01:10:51.706Z,96.52
2022-09-24T01:14:00.332Z,96.10
2022-09-24T01:16:41.333Z,95.77
2022-09-24T01:19:50.655Z,97.00
2022-09-24T01:22:33.842Z,97.25
2022-09-24T01:25:07.904Z,98.42
2022-09-24T01:27:57.587Z,98.32
2022-09-24T01:30:31.826Z,96.92
2022-09-24T01:33:04.302Z,98.62
2022-09-24T01:35:37.182Z,98.02
2022-09-24T01:38:10.881Z,98.02
2022-09-24T01:40:41.201Z,97.42
2022-09-24T01:43:12.090Z,99.22
2022-09-24T01:45:42.016Z,98.49
2022-09-24T01:48:10.898Z,98.83
2022-09-24T01:50:47.093Z,98.56
2022-09-24T01:53:20.293Z,98.26
2022-09-24T01:55:52.762Z,97.93
2022-09-24T01:58:29.273Z,96.92
2022-09-24T02:01:06.669Z,96.13
2022-09-24T02:03:40.051Z,96.93
2022-09-24T02:06:17.258Z,97.06
2022-09-24T02:08:59.738Z,97.89
2022-09-24T02:11:28.531Z,98.01
2022-09-24T02:14:01.788Z,97.36
2022-09-24T02:16:37.640Z,97.62
2022-09-24T02:19:17.189Z,97.59
2022-09-24T02:21:47.567Z,97.79
2022-09-24T02:24:18.767Z,98.37
2022-09-24T02:26:47.490Z,98.26
2022-09-24T02:29:15.886Z,97.89
2022-09-24T02:31:49.279Z,98.89
2022-09-24T02:34:22.425Z,98.89
2022-09-24T02:36:54.047Z,99.89
2022-09-24T02:39:23.071Z,99.76
2022-09-24T02:41:53.065Z,100.00
2022-09-24T02:44:22.341Z,99.69
2022-09-24T02:46:51.994Z,99.71
2022-09-24T02:49:20.413Z,99.86
2022-09-24T02:51:48.669Z,99.00
2022-09-24T02:54:17.145Z,98.84
2022-09-24T02:56:45.372Z,98.44
2022-09-24T02:59:13.674Z,98.63
2022-09-24T03:01:42.053Z,98.89
2022-09-24T03:04:11.713Z,99.42
2022-09-24T03:06:40.196Z,99.20
2022-09-24T03:09:08.334Z,98.85
2022-09-24T03:11:36.497Z,98.98
2022-09-24T03:14:04.683Z,98.73
2022-09-24T03:16:33.673Z,99.08
2022-09-24T03:19:01.935Z,98.94
2022-09-24T03:21:31.605Z,98.56
2022-09-24T03:24:00.144Z,97.83
2022-09-24T03:26:28.331Z,98.95
2022-09-24T03:28:58.807Z,98.98
2022-09-24T03:31:26.012Z,98.95
2022-09-24T03:33:54.494Z,99.93
2022-09-24T03:36:26.938Z,99.51
2022-09-24T03:38:58.286Z,100.00
2022-09-24T03:41:28.398Z,99.26
2022-09-24T03:43:57.103Z,99.01
2022-09-24T03:46:30.473Z,98.58
2022-09-24T03:49:00.454Z,98.08
2022-09-24T03:51:29.622Z,98.22
2022-09-24T03:53:59.703Z,97.32
2022-09-24T03:56:27.967Z,97.47
2022-09-24T03:58:56.365Z,96.81
2022-09-24T04:01:24.600Z,96.57
2022-09-24T04:03:56.718Z,96.47
2022-09-24T04:06:31.628Z,96.84
2022-09-24T04:09:01.302Z,97.18
2022-09-24T04:11:29.441Z,97.77
2022-09-24T04:13:59.169Z,96.92
2022-09-24T04:16:27.371Z,98.06
2022-09-24T04:18:56.254Z,98.00
2022-09-24T04:21:24.362Z,97.30
2022-09-24T04:23:52.571Z,96.89
2022-09-24T04:26:22.417Z,97.62
2022-09-24T04:28:50.769Z,97.60
2022-09-24T04:31:19.828Z,97.66
2022-09-24T04:33:48.056Z,97.92
2022-09-24T04:36:16.346Z,97.82
2022-09-24T04:38:46.695Z,98.99
2022-09-24T04:41:15.993Z,98.32
2022-09-24T04:43:46.663Z,98.47
2022-09-24T04:46:15.243Z,99.68
2022-09-24T04:48:43.535Z,99.19
2022-09-24T04:51:11.853Z,100.00
2022-09-24T04:53:40.320Z,100.00
2022-09-24T04:56:11.273Z,100.00
2022-09-24T04:58:39.561Z,100.00
2022-09-24T05:01:09.125Z,100.00
2022-09-24T05:03:37.381Z,100.00
2022-09-24T05:06:05.840Z,100.00
2022-09-24T05:08:34.109Z,99.88
2022-09-24T05:11:02.609Z,98.97
2022-09-24T05:13:34.427Z,98.96
2022-09-24T05:16:03.605Z,98.89
2022-09-24T05:18:33.257Z,99.10
2022-09-24T05:21:01.473Z,98.62
2022-09-24T05:23:29.599Z,98.81
2022-09-24T05:26:15.060Z,98.12
2022-09-24T05:28:45.583Z,98.42
2022-09-24T05:31:13.870Z,98.98
2022-09-24T05:33:43.729Z,98.31
2022-09-24T05:36:11.867Z,99.99
2022-09-24T05:38:41.883Z,99.64
2022-09-24T05:41:10.740Z,100.00
2022-09-24T05:43:38.959Z,99.29
2022-09-24T05:46:07.986Z,99.54
2022-09-24T05:48:36.616Z,99.44
2022-09-24T05:51:06.932Z,98.07
2022-09-24T05:53:35.530Z,98.24
2022-09-24T05:56:03.774Z,98.34
2022-09-24T05:58:32.157Z,98.46
2022-09-24T06:01:01.637Z,98.41
2022-09-24T06:06:25.255Z,99.58
2022-09-24T06:08:53.771Z,98.95
2022-09-24T06:11:22.370Z,98.96
2022-09-24T06:13:50.995Z,99.65
2022-09-24T06:16:19.536Z,99.34
2022-09-24T06:18:48.001Z,99.45
2022-09-24T06:21:18.645Z,99.40
2022-09-24T06:23:49.992Z,99.56
2022-09-24T06:26:18.871Z,100.00
2022-09-24T06:28:47.927Z,100.00
2022-09-24T06:31:17.981Z,100.00
2022-09-24T06:33:46.268Z,100.00
2022-09-24T06:36:14.671Z,100.00
2022-09-24T06:38:43.026Z,100.00
2022-09-24T06:41:12.766Z,100.00
2022-09-24T06:43:40.904Z,100.00
2022-09-24T06:46:10.261Z,100.00
2022-09-24T06:48:39.665Z,100.00
2022-09-24T06:51:08.276Z,100.00
2022-09-24T06:53:36.424Z,100.00
2022-09-24T06:56:04.930Z,99.75
2022-09-24T06:58:34.835Z,100.00
2022-09-24T07:01:06.556Z,99.62
2022-09-24T07:03:36.445Z,98.59
2022-09-24T07:06:07.523Z,98.37
2022-09-24T07:08:35.860Z,99.23
2022-09-24T07:11:04.116Z,99.23
2022-09-24T07:13:32.402Z,99.16
2022-09-24T07:16:02.549Z,99.43
2022-09-24T07:18:30.932Z,100.00
2022-09-24T07:20:59.412Z,99.73
2022-09-24T07:23:27.951Z,99.55
2022-09-24T07:25:57.994Z,97.60
2022-09-24T07:28:26.376Z,97.05
2022-09-24T07:30:59.567Z,98.18
2022-09-24T07:33:29.330Z,97.00
2022-09-24T07:35:57.474Z,96.77
2022-09-24T07:38:25.680Z,96.02
2022-09-24T07:40:58.945Z,93.37
2022-09-24T07:43:27.967Z,92.34
2022-09-24T07:45:58.063Z,92.34
2022-09-24T07:48:27.766Z,92.53
2022-09-24T07:50:56.011Z,92.53
2022-09-24T07:53:24.576Z,92.58
2022-09-24T07:55:52.746Z,93.10
2022-09-24T07:58:21.828Z,94.00
2022-09-24T08:00:59.732Z,93.14
2022-09-24T08:03:32.391Z,93.25
2022-09-24T08:06:01.714Z,92.76
2022-09-24T08:08:30.111Z,91.41
2022-09-24T08:10:58.583Z,91.86
2022-09-24T08:13:27.962Z,91.55
2022-09-24T08:16:00.585Z,91.53
2022-09-24T08:18:32.593Z,91.07
2022-09-24T08:21:04.922Z,89.80
2022-09-24T08:23:33.704Z,88.70
2022-09-24T08:26:01.939Z,88.40
2022-09-24T08:28:30.395Z,88.40
2022-09-24T08:31:00.484Z,89.68
2022-09-24T08:33:31.999Z,90.73
2022-09-24T08:36:00.963Z,89.85
2022-09-24T08:38:29.448Z,88.87
2022-09-24T08:41:09.476Z,88.48
2022-09-24T08:43:47.950Z,89.41
2022-09-24T08:46:39.236Z,89.21
2022-09-24T08:49:16.266Z,89.68
2022-09-24T08:51:55.328Z,89.22
2022-09-24T08:54:26.008Z,89.34
2022-09-24T08:56:57.140Z,90.09
2022-09-24T08:59:30.414Z,89.83
2022-09-24T09:02:17.970Z,89.05
2022-09-24T09:05:00.361Z,88.18
2022-09-24T09:07:33.700Z,88.37
2022-09-24T09:10:05.536Z,88.67
2022-09-24T09:12:39.947Z,88.42
2022-09-24T09:15:13.204Z,88.70
2022-09-24T09:17:47.765Z,89.13
2022-09-24T09:20:21.006Z,87.34
2022-09-24T09:22:53.351Z,86.60
2022-09-24T09:25:25.748Z,87.26
2022-09-24T09:28:01.494Z,87.67
2022-09-24T09:30:43.632Z,87.63
2022-09-24T09:33:31.102Z,87.30
2022-09-24T09:36:16.866Z,88.04
2022-09-24T09:38:53.983Z,88.00
2022-09-24T09:41:29.673Z,87.52
2022-09-24T09:44:02.933Z,85.50
2022-09-24T09:46:36.573Z,85.69
2022-09-24T09:49:08.382Z,84.30
2022-09-24T09:51:43.214Z,83.25
2022-09-24T09:54:12.537Z,83.10
2022-09-24T09:56:46.189Z,83.30
2022-09-24T09:59:27.159Z,84.75
2022-09-24T10:01:57.975Z,83.97
2022-09-24T10:04:37.226Z,83.72
2022-09-24T10:07:41.846Z,81.07
2022-09-24T10:10:20.667Z,81.48
2022-09-24T10:12:49.378Z,80.93
2022-09-24T10:15:20.633Z,81.12
2022-09-24T10:17:52.593Z,81.68
2022-09-24T10:20:27.527Z,78.25
2022-09-24T10:23:01.472Z,76.29
2022-09-24T10:25:32.422Z,76.24
2022-09-24T10:28:17.139Z,73.97
2022-09-24T10:30:58.729Z,73.94
2022-09-24T10:33:27.786Z,74.00
2022-09-24T10:36:07.626Z,73.74
2022-09-24T10:38:37.272Z,73.94
2022-09-24T10:41:27.115Z,74.60
2022-09-24T10:43:57.532Z,74.54
2022-09-24T10:46:50.713Z,74.50
2022-09-24T10:49:33.411Z,75.02
2022-09-24T10:52:10.740Z,77.72
2022-09-24T10:54:55.877Z,73.35
2022-09-24T10:57:32.979Z,73.93
2022-09-24T11:00:13.948Z,73.73
2022-09-24T11:03:24.419Z,71.84
2022-09-24T11:05:56.401Z,73.38
2022-09-24T11:08:39.729Z,73.74
2022-09-24T11:11:26.139Z,72.92
2022-09-24T11:14:10.593Z,73.21
2022-09-24T11:16:59.159Z,73.66
2022-09-24T11:19:55.928Z,72.74
2022-09-24T11:22:37.455Z,72.32
2022-09-24T11:25:24.466Z,72.83
2022-09-24T11:28:06.396Z,73.85
2022-09-24T11:30:47.828Z,75.74
2022-09-24T11:33:34.870Z,75.52
2022-09-24T11:36:29.679Z,75.16
2022-09-24T11:39:16.876Z,76.13
2022-09-24T11:41:55.367Z,72.38
2022-09-24T11:45:08.396Z,70.64
2022-09-24T11:47:54.175Z,71.68
2022-09-24T11:50:38.254Z,71.86
2022-09-24T11:53:13.595Z,72.24
2022-09-24T11:55:49.331Z,73.06
2022-09-24T11:58:23.578Z,72.23
2022-09-24T12:00:57.167Z,72.69
2022-09-24T12:03:36.607Z,70.10
2022-09-24T12:06:11.911Z,72.09
2022-09-24T12:08:53.301Z,72.38
2022-09-24T12:11:30.927Z,70.96
2022-09-24T12:14:07.117Z,71.40
2022-09-24T12:16:40.479Z,71.58
2022-09-24T12:19:15.482Z,71.83
2022-09-24T12:21:45.826Z,71.61
2022-09-24T12:24:21.521Z,71.75
2022-09-24T12:26:50.662Z,70.62
2022-09-24T12:29:54.755Z,71.95
2022-09-24T12:32:50.441Z,70.35
2022-09-24T12:35:34.620Z,71.69
2022-09-24T12:38:08.075Z,71.17
2022-09-24T12:41:24.066Z,71.75
2022-09-24T12:43:59.389Z,71.24
2022-09-24T12:46:32.665Z,71.59
2022-09-24T12:49:02.853Z,71.25
2022-09-24T12:51:39.549Z,68.91
2022-09-24T12:54:17.920Z,69.38
2022-09-24T12:56:46.113Z,70.92
2022-09-24T12:59:27.117Z,69.46
2022-09-24T13:01:56.036Z,67.47
2022-09-24T13:04:30.354Z,67.11
2022-09-24T13:06:58.599Z,69.43
2022-09-24T13:09:37.640Z,68.91
2022-09-24T13:12:21.901Z,68.04
2022-09-24T13:14:57.536Z,69.10
2022-09-24T13:17:26.125Z,67.87
2022-09-24T13:20:01.297Z,68.78
2022-09-24T13:22:32.969Z,68.46
2022-09-24T13:25:22.837Z,69.94
2022-09-24T13:28:06.614Z,69.76
2022-09-24T13:30:40.019Z,69.63
2022-09-24T13:33:24.135Z,70.36
2022-09-24T13:36:07.313Z,69.88
2022-09-24T13:38:40.057Z,71.32
2022-09-24T13:41:24.355Z,70.02
2022-09-24T13:43:58.697Z,70.60
2022-09-24T13:46:29.119Z,71.83
2022-09-24T13:49:03.580Z,72.48
2022-09-24T13:51:38.057Z,71.56
2022-09-24T13:54:15.558Z,71.62
2022-09-24T13:56:58.639Z,72.13
2022-09-24T13:59:26.781Z,72.30
2022-09-24T14:01:55.178Z,72.24
2022-09-24T14:04:25.337Z,73.13
2022-09-24T14:06:57.724Z,74.03
2022-09-24T14:09:52.871Z,74.04
2022-09-24T14:12:22.353Z,73.79
2022-09-24T14:14:58.034Z,73.98
2022-09-24T14:17:27.186Z,74.49
2022-09-24T14:19:57.483Z,74.46
2022-09-24T14:22:32.323Z,74.48
2022-09-24T14:25:02.935Z,74.46
2022-09-24T14:27:33.687Z,74.66
2022-09-24T14:30:04.881Z,75.46
2022-09-24T14:32:36.373Z,75.23
2022-09-24T14:35:07.857Z,75.91
2022-09-24T14:37:40.694Z,76.29
2022-09-24T14:40:14.230Z,76.56
2022-09-24T14:42:46.939Z,77.04
2022-09-24T14:45:22.648Z,77.33
2022-09-24T14:48:02.271Z,77.66
2022-09-24T14:50:38.805Z,77.16
2022-09-24T14:53:22.268Z,78.25
2022-09-24T14:55:50.814Z,78.79
2022-09-24T14:58:37.271Z,81.73
2022-09-24T15:01:14.714Z,82.75
2022-09-24T15:03:45.909Z,83.79
2022-09-24T15:06:21.669Z,85.99
2022-09-24T15:09:00.561Z,88.68
2022-09-24T15:11:34.394Z,90.72
2022-09-24T15:14:14.718Z,92.19
2022-09-24T15:16:44.071Z,93.35
2022-09-24T15:19:19.878Z,93.59
2022-09-24T15:21:49.530Z,92.71
2022-09-24T15:24:20.419Z,93.12
2022-09-24T15:26:59.185Z,94.15
2022-09-24T15:29:27.657Z,94.87
2022-09-24T15:31:56.883Z,93.47
2022-09-24T15:34:25.577Z,94.29
2022-09-24T15:36:59.659Z,94.39
2022-09-24T15:39:29.999Z,93.54
2022-09-24T15:41:58.261Z,93.23
2022-09-24T15:44:33.604Z,93.85
2022-09-24T15:47:02.269Z,97.30
2022-09-24T15:49:31.121Z,97.33
2022-09-24T15:52:03.837Z,97.41
2022-09-24T15:54:33.503Z,97.75
2022-09-24T15:57:02.359Z,98.80
2022-09-24T15:59:30.637Z,98.95
2022-09-24T16:02:08.640Z,97.99
2022-09-24T16:04:36.946Z,98.07
2022-09-24T16:07:05.497Z,98.14
2022-09-24T16:09:35.748Z,98.17
2022-09-24T16:12:04.084Z,98.93
2022-09-24T16:14:32.306Z,99.92
2022-09-24T16:17:00.435Z,100.00
2022-09-24T16:19:29.503Z,100.00
2022-09-24T16:21:59.394Z,100.00
2022-09-24T16:24:27.657Z,100.00
2022-09-24T16:27:00.201Z,100.00
2022-09-24T16:29:28.384Z,100.00
2022-09-24T16:31:56.830Z,100.00
2022-09-24T16:34:25.478Z,100.00
2022-09-24T16:36:53.739Z,100.00
2022-09-24T16:39:22.147Z,100.00
2022-09-24T16:41:50.380Z,100.00
2022-09-24T16:44:19.892Z,100.00
2022-09-24T16:46:48.145Z,100.00
2022-09-24T16:49:16.427Z,100.00
2022-09-24T16:51:45.135Z,100.00
2022-09-24T16:54:13.713Z,100.00
2022-09-24T16:56:41.867Z,100.00
2022-09-24T16:59:11.714Z,100.00
2022-09-24T17:01:42.377Z,100.00
2022-09-24T17:04:10.648Z,100.00
2022-09-24T17:06:38.831Z,100.00
2022-09-24T17:09:25.113Z,100.00
2022-09-24T17:11:53.682Z,100.00
2022-09-24T17:14:22.054Z,100.00
2022-09-24T17:16:51.709Z,100.00
2022-09-24T17:19:20.272Z,100.00
2022-09-24T17:21:50.233Z,100.00
2022-09-24T17:24:21.945Z,100.00
2022-09-24T17:26:50.546Z,100.00
2022-09-24T17:29:20.736Z,100.00
2022-09-24T17:31:50.854Z,100.00
2022-09-24T17:34:19.067Z,100.00
2022-09-24T17:36:47.234Z,100.00
2022-09-24T17:39:15.874Z,100.00
2022-09-24T17:41:44.023Z,100.00
2022-09-24T17:44:13.394Z,100.00
2022-09-24T17:46:41.633Z,100.00
2022-09-24T17:49:11.853Z,100.00
2022-09-24T17:51:40.390Z,100.00
2022-09-24T17:54:13.504Z,100.00
2022-09-24T17:56:41.935Z,100.00
2022-09-24T17:59:13.119Z,100.00
2022-09-24T18:01:43.900Z,100.00
2022-09-24T18:04:16.606Z,100.00
2022-09-24T18:06:47.226Z,100.00
2022-09-24T18:09:18.262Z,100.00
2022-09-24T18:11:48.825Z,100.00
2022-09-24T18:14:20.238Z,100.00
2022-09-24T18:16:49.144Z,100.00
2022-09-24T18:19:18.996Z,100.00
2022-09-24T18:21:48.402Z,100.00
2022-09-24T18:24:17.022Z,100.00
2022-09-24T18:26:48.374Z,100.00
2022-09-24T18:29:20.264Z,100.00
2022-09-24T18:31:49.305Z,100.00
2022-09-24T18:34:18.818Z,100.00
2022-09-24T18:36:47.172Z,100.00
2022-09-24T18:39:20.321Z,100.00
2022-09-24T18:41:53.348Z,100.00
2022-09-24T18:44:21.527Z,100.00
2022-09-24T18:46:49.836Z,100.00
2022-09-24T18:49:20.197Z,100.00
2022-09-24T18:51:49.215Z,100.00
2022-09-24T18:54:18.204Z,100.00
2022-09-24T18:56:46.802Z,100.00
2022-09-24T18:59:18.079Z,100.00
2022-09-24T19:01:47.872Z,100.00
2022-09-24T19:04:16.744Z,100.00
2022-09-24T19:06:49.783Z,100.00
2022-09-24T19:09:20.168Z,100.00
2022-09-24T19:11:49.153Z,100.00
2022-09-24T19:14:19.001Z,100.00
2022-09-24T19:16:48.133Z,100.00
2022-09-24T19:19:16.583Z,100.00
2022-09-24T19:21:46.897Z,100.00
2022-09-24T19:24:15.073Z,100.00
2022-09-24T19:26:43.367Z,100.00
2022-09-24T19:29:12.239Z,100.00
2022-09-24T19:31:45.452Z,100.00
2022-09-24T19:34:14.646Z,100.00
2022-09-24T19:36:44.950Z,100.00
2022-09-24T19:39:17.162Z,100.00
2022-09-24T19:41:45.813Z,100.00
2022-09-24T19:44:16.522Z,100.00
2022-09-24T19:46:45.118Z,100.00
2022-09-24T19:49:13.723Z,100.00
2022-09-24T19:51:41.879Z,100.00
2022-09-24T19:54:11.363Z,100.00
2022-09-24T19:56:41.438Z,100.00
2022-09-24T19:59:10.739Z,100.00
2022-09-24T20:02:08.560Z,100.00
2022-09-24T20:04:36.790Z,100.00
2022-09-24T20:10:00.955Z,100.00
2022-09-24T20:12:30.463Z,100.00
2022-09-24T20:14:58.608Z,100.00
2022-09-24T20:17:26.931Z,100.00
2022-09-24T20:19:55.951Z,100.00
2022-09-24T20:22:25.875Z,100.00
2022-09-24T20:24:54.016Z,100.00
2022-09-24T20:27:39.944Z,100.00
2022-09-24T20:30:11.589Z,100.00
2022-09-24T20:32:41.137Z,100.00
2022-09-24T20:35:10.459Z,100.00
2022-09-24T20:37:39.114Z,100.00
2022-09-24T20:40:09.494Z,100.00
2022-09-24T20:42:39.054Z,100.00
2022-09-24T20:45:10.326Z,100.00
2022-09-24T20:47:39.031Z,100.00
2022-09-24T20:50:08.822Z,100.00
2022-09-24T20:52:36.942Z,100.00
2022-09-24T20:55:06.982Z,100.00
2022-09-24T20:57:35.163Z,100.00
2022-09-24T21:00:03.396Z,100.00
2022-09-24T21:02:34.906Z,100.00
2022-09-24T21:05:05.977Z,100.00
2022-09-24T21:07:35.536Z,100.00
2022-09-24T21:10:06.128Z,100.00
2022-09-24T21:12:34.705Z,100.00
2022-09-24T21:15:02.864Z,100.00
2022-09-24T21:17:32.698Z,100.00
2022-09-24T21:20:01.013Z,100.00
2022-09-24T21:22:29.389Z,100.00
2022-09-24T21:24:57.775Z,100.00
2022-09-24T21:27:25.923Z,100.00
2022-09-24T21:29:54.057Z,100.00
2022-09-24T21:32:22.198Z,100.00
2022-09-24T21:34:52.132Z,100.00
2022-09-24T21:37:20.899Z,100.00
2022-09-24T21:39:50.049Z,100.00
2022-09-24T21:42:19.720Z,100.00
2022-09-24T21:44:48.203Z,100.00
2022-09-24T21:47:16.341Z,100.00
2022-09-24T21:49:44.433Z,100.00
2022-09-24T21:52:13.895Z,100.00
2022-09-24T21:54:42.033Z,100.00
2022-09-24T21:57:10.535Z,100.00
2022-09-24T21:59:56.323Z,100.00
2022-09-24T22:02:24.590Z,100.00
2022-09-24T22:04:53.474Z,100.00
2022-09-24T22:07:29.099Z,100.00
2022-09-24T22:09:57.472Z,100.00
2022-09-24T22:12:25.606Z,100.00
2022-09-24T22:14:53.771Z,100.00
2022-09-24T22:17:21.943Z,100.00
2022-09-24T22:19:50.053Z,100.00
2022-09-24T22:22:18.179Z,100.00
2022-09-24T22:24:47.817Z,100.00
2022-09-24T22:27:16.010Z,100.00
2022-09-24T22:29:44.131Z,100.00
2022-09-24T22:32:12.311Z,100.00
2022-09-24T22:34:58.171Z,100.00
2022-09-24T22:37:27.130Z,100.00
2022-09-24T22:39:56.712Z,100.00
2022-09-24T22:42:24.839Z,100.00
2022-09-24T22:44:52.961Z,100.00
2022-09-24T22:47:21.129Z,100.00
2022-09-24T22:49:49.278Z,100.00
2022-09-24T22:52:17.398Z,100.00
2022-09-24T22:54:45.482Z,100.00
2022-09-24T22:57:14.958Z,100.00
2022-09-24T22:59:43.105Z,100.00
2022-09-24T23:02:13.370Z,100.00
2022-09-24T23:04:41.939Z,100.00
2022-09-24T23:07:10.513Z,100.00
2022-09-24T23:09:38.653Z,100.00
2022-09-24T23:12:06.984Z,100.00
2022-09-24T23:14:36.541Z,100.00
2022-09-24T23:17:04.783Z,100.00
2022-09-24T23:19:46.866Z,100.00
2022-09-24T23:22:15.487Z,100.00
2022-09-24T23:24:43.871Z,100.00
2022-09-24T23:27:11.996Z,100.00
2022-09-24T23:29:41.482Z,100.00
2022-09-24T23:32:09.647Z,100.00
2022-09-24T23:34:37.940Z,100.00
2022-09-24T23:37:06.139Z,100.00
2022-09-24T23:39:34.443Z,100.00
2022-09-24T23:42:02.596Z,100.00
2022-09-24T23:44:30.702Z,100.00
2022-09-24T23:47:00.379Z,100.00
2022-09-24T23:49:29.517Z,100.00
2022-09-24T23:51:58.147Z,100.00
2022-09-24T23:54:27.247Z,100.00
2022-09-24T23:56:56.072Z,100.00
2022-09-24T23:59:24.198Z,100.00
